createdAt,value
2019-05-28T00:02:01.284Z,16.50
2019-05-28T00:04:31.762Z,16.60
2019-05-28T00:07:02.213Z,16.70
2019-05-28T00:09:32.649Z,16.70
2019-05-28T00:12:03.060Z,16.60
2019-05-28T00:14:33.382Z,16.60
2019-05-28T00:17:03.810Z,16.70
2019-05-28T00:19:34.179Z,16.60
2019-05-28T00:22:04.499Z,16.60
2019-05-28T00:24:34.912Z,16.60
2019-05-28T00:27:05.313Z,16.70
2019-05-28T00:29:35.668Z,16.70
2019-05-28T00:32:06.054Z,16.70
2019-05-28T00:34:36.377Z,16.60
2019-05-28T00:37:06.648Z,16.40
2019-05-28T00:39:36.951Z,16.30
2019-05-28T00:42:07.285Z,16.30
2019-05-28T00:44:37.611Z,16.10
2019-05-28T00:47:08.028Z,16.10
2019-05-28T00:49:38.380Z,16.10
2019-05-28T00:52:08.783Z,16.10
2019-05-28T00:54:39.140Z,16.20
2019-05-28T00:57:09.931Z,16.20
2019-05-28T00:59:40.490Z,16.30
2019-05-28T01:02:11.919Z,16.50
2019-05-28T01:04:42.289Z,16.50
2019-05-28T01:07:13.079Z,16.20
2019-05-28T01:09:43.440Z,16.10
2019-05-28T01:12:13.871Z,15.90
2019-05-28T01:14:44.279Z,16.00
2019-05-28T01:17:14.720Z,16.10
2019-05-28T01:19:45.049Z,16.20
2019-05-28T01:22:18.415Z,16.20
2019-05-28T01:24:48.714Z,16.20
2019-05-28T01:27:19.092Z,16.30
2019-05-28T01:29:49.801Z,16.30
2019-05-28T01:32:20.141Z,16.20
2019-05-28T01:34:50.494Z,16.20
2019-05-28T01:37:20.840Z,16.20
2019-05-28T01:39:51.224Z,16.00
2019-05-28T01:42:21.654Z,15.90
2019-05-28T01:44:52.052Z,16.10
2019-05-28T01:47:22.424Z,16.10
2019-05-28T01:49:53.042Z,16.00
2019-05-28T01:52:24.037Z,16.10
2019-05-28T01:54:54.412Z,16.00
2019-05-28T01:57:24.852Z,16.00
2019-05-28T01:59:55.171Z,16.10
2019-05-28T02:02:26.107Z,16.10
2019-05-28T02:04:56.497Z,16.00
2019-05-28T02:07:26.856Z,16.00
2019-05-28T02:09:57.189Z,15.90
2019-05-28T02:12:27.621Z,15.80
2019-05-28T02:14:57.929Z,15.80
2019-05-28T02:17:28.391Z,15.80
2019-05-28T02:19:58.812Z,15.80
2019-05-28T02:22:29.240Z,15.70
2019-05-28T02:24:59.546Z,15.70
2019-05-28T02:27:29.847Z,15.70
2019-05-28T02:30:00.200Z,15.60
2019-05-28T02:32:30.544Z,15.50
2019-05-28T02:35:00.904Z,15.50
2019-05-28T02:37:31.286Z,15.40
2019-05-28T02:40:01.741Z,15.40
2019-05-28T02:42:32.039Z,15.30
2019-05-28T02:45:02.469Z,15.40
2019-05-28T02:47:32.795Z,15.60
2019-05-28T02:50:03.209Z,15.50
2019-05-28T02:52:33.530Z,15.50
2019-05-28T02:55:04.480Z,15.50
2019-05-28T02:57:36.194Z,15.40
2019-05-28T03:00:07.116Z,15.50
2019-05-28T03:02:38.720Z,15.40
2019-05-28T03:05:09.056Z,15.40
2019-05-28T03:07:42.004Z,15.40
2019-05-28T03:10:12.956Z,15.40
2019-05-28T03:12:43.448Z,15.40
2019-05-28T03:15:13.775Z,15.30
2019-05-28T03:17:44.986Z,15.30
2019-05-28T03:20:15.645Z,15.20
2019-05-28T03:22:47.054Z,15.20
2019-05-28T03:25:19.707Z,15.10
2019-05-28T03:27:50.190Z,15.10
2019-05-28T03:30:20.616Z,15.10
2019-05-28T03:32:50.961Z,15.10
2019-05-28T03:35:22.186Z,15.00
2019-05-28T03:37:54.443Z,15.20
2019-05-28T03:40:40.675Z,15.30
2019-05-28T03:43:11.004Z,15.20
2019-05-28T03:45:41.585Z,15.20
2019-05-28T03:48:11.956Z,15.30
2019-05-28T03:50:42.292Z,15.10
2019-05-28T03:53:12.722Z,15.10
2019-05-28T03:55:43.167Z,15.00
2019-05-28T03:58:13.575Z,15.10
2019-05-28T04:00:43.946Z,15.10
2019-05-28T04:03:14.271Z,15.20
2019-05-28T04:05:44.595Z,15.00
2019-05-28T04:08:14.952Z,15.00
2019-05-28T04:10:48.368Z,14.80
2019-05-28T04:13:18.667Z,14.80
2019-05-28T04:15:49.031Z,14.80
2019-05-28T04:18:19.363Z,14.80
2019-05-28T04:20:49.864Z,14.70
2019-05-28T04:23:20.330Z,14.70
2019-05-28T04:25:50.665Z,14.70
2019-05-28T04:28:21.067Z,14.60
2019-05-28T04:30:51.486Z,14.70
2019-05-28T04:33:21.868Z,14.70
2019-05-28T04:35:52.256Z,14.60
2019-05-28T04:38:22.686Z,14.60
2019-05-28T04:40:53.136Z,14.60
2019-05-28T04:43:23.542Z,14.40
2019-05-28T04:45:53.951Z,14.40
2019-05-28T04:48:24.320Z,14.40
2019-05-28T04:50:54.624Z,14.30
2019-05-28T04:53:24.981Z,14.10
2019-05-28T04:55:55.386Z,14.20
2019-05-28T04:58:25.839Z,14.20
2019-05-28T05:00:56.163Z,14.30
2019-05-28T05:03:26.604Z,14.30
2019-05-28T05:05:56.964Z,14.30
2019-05-28T05:08:27.332Z,14.20
2019-05-28T05:10:57.636Z,14.10
2019-05-28T05:13:27.989Z,14.20
2019-05-28T05:15:58.376Z,14.20
2019-05-28T05:18:28.662Z,14.00
2019-05-28T05:20:59.022Z,14.10
2019-05-28T05:23:29.611Z,14.20
2019-05-28T05:26:00.064Z,14.10
2019-05-28T05:28:30.401Z,14.10
2019-05-28T05:31:00.745Z,14.30
2019-05-28T05:33:31.091Z,14.30
2019-05-28T05:36:01.412Z,14.30
2019-05-28T05:38:31.770Z,14.50
2019-05-28T05:41:02.149Z,14.40
2019-05-28T05:43:32.589Z,14.50
2019-05-28T05:46:03.101Z,14.60
2019-05-28T05:48:33.401Z,14.60
2019-05-28T05:51:03.768Z,14.40
2019-05-28T05:53:34.154Z,14.40
2019-05-28T05:56:04.510Z,14.50
2019-05-28T05:58:34.870Z,14.50
2019-05-28T06:01:05.347Z,14.60
2019-05-28T06:03:40.381Z,14.60
2019-05-28T06:06:07.966Z,14.60
2019-05-28T06:08:38.419Z,14.70
2019-05-28T06:11:08.808Z,14.70
2019-05-28T06:13:39.173Z,14.80
2019-05-28T06:16:09.547Z,14.80
2019-05-28T06:18:39.931Z,14.80
2019-05-28T06:21:16.250Z,14.70
2019-05-28T06:23:42.527Z,14.80
2019-05-28T06:26:12.910Z,14.70
2019-05-28T06:28:43.386Z,14.70
2019-05-28T06:31:13.820Z,14.60
2019-05-28T06:33:56.085Z,14.70
2019-05-28T06:36:16.149Z,14.80
2019-05-28T06:38:46.508Z,14.80
2019-05-28T06:41:16.826Z,14.80
2019-05-28T06:43:47.141Z,14.60
2019-05-28T06:46:17.517Z,14.50
2019-05-28T06:48:47.860Z,14.60
2019-05-28T06:51:18.292Z,14.50
2019-05-28T06:53:48.670Z,14.50
2019-05-28T06:56:18.992Z,14.50
2019-05-28T06:58:49.440Z,14.40
2019-05-28T07:01:19.788Z,14.50
2019-05-28T07:03:50.104Z,14.60
2019-05-28T07:06:20.519Z,14.40
2019-05-28T07:08:50.835Z,14.10
2019-05-28T07:11:21.194Z,14.10
2019-05-28T07:13:51.587Z,14.10
2019-05-28T07:16:22.057Z,14.10
2019-05-28T07:18:52.351Z,14.20
2019-05-28T07:21:22.817Z,14.00
2019-05-28T07:23:53.224Z,13.80
2019-05-28T07:26:23.581Z,13.90
2019-05-28T07:28:53.976Z,14.10
2019-05-28T07:31:24.349Z,14.00
2019-05-28T07:33:54.730Z,14.20
2019-05-28T07:36:25.155Z,14.40
2019-05-28T07:38:55.527Z,14.50
2019-05-28T07:41:25.956Z,14.50
2019-05-28T07:43:56.267Z,14.40
2019-05-28T07:46:26.663Z,14.50
2019-05-28T07:48:56.984Z,14.40
2019-05-28T07:51:27.364Z,14.60
2019-05-28T07:53:57.882Z,14.70
2019-05-28T07:56:28.302Z,14.80
2019-05-28T07:58:58.700Z,15.00
2019-05-28T08:01:29.151Z,15.10
2019-05-28T08:03:59.454Z,15.10
2019-05-28T08:06:29.872Z,15.10
2019-05-28T08:09:00.216Z,15.20
2019-05-28T08:11:32.611Z,15.30
2019-05-28T08:14:02.884Z,15.40
2019-05-28T08:16:33.209Z,15.40
2019-05-28T08:19:03.543Z,15.50
2019-05-28T08:21:33.905Z,15.60
2019-05-28T08:24:04.296Z,15.60
2019-05-28T08:26:34.734Z,15.70
2019-05-28T08:29:05.187Z,15.70
2019-05-28T08:31:35.518Z,15.70
2019-05-28T08:34:05.936Z,15.80
2019-05-28T08:36:36.372Z,15.60
2019-05-28T08:39:07.951Z,15.70
2019-05-28T08:41:38.319Z,15.70
2019-05-28T08:44:08.646Z,15.80
2019-05-28T08:46:39.106Z,15.70
2019-05-28T08:49:09.767Z,15.70
2019-05-28T08:51:40.119Z,15.50
2019-05-28T08:54:10.470Z,15.60
2019-05-28T08:56:40.838Z,15.60
2019-05-28T08:59:11.234Z,15.60
2019-05-28T09:01:41.643Z,15.70
2019-05-28T09:04:11.999Z,15.80
2019-05-28T09:06:42.420Z,15.90
2019-05-28T09:09:12.739Z,15.80
2019-05-28T09:11:43.167Z,15.90
2019-05-28T09:14:13.594Z,15.70
2019-05-28T09:16:44.048Z,15.70
2019-05-28T09:19:14.460Z,15.80
2019-05-28T09:21:44.875Z,15.90
2019-05-28T09:24:15.227Z,15.90
2019-05-28T09:26:45.623Z,15.90
2019-05-28T09:29:15.945Z,15.80
2019-05-28T09:31:46.387Z,15.80
2019-05-28T09:34:16.707Z,15.80
2019-05-28T09:36:47.171Z,15.80
2019-05-28T09:39:17.624Z,15.60
2019-05-28T09:41:47.991Z,15.50
2019-05-28T09:44:18.378Z,15.60
2019-05-28T09:46:48.747Z,15.80
2019-05-28T09:49:19.054Z,16.00
2019-05-28T09:51:49.383Z,15.90
2019-05-28T09:54:19.715Z,15.80
2019-05-28T09:56:51.085Z,15.80
2019-05-28T09:59:21.513Z,15.80
2019-05-28T10:01:52.139Z,15.80
2019-05-28T10:04:22.475Z,16.00
2019-05-28T10:06:52.863Z,16.00
2019-05-28T10:09:23.227Z,16.00
2019-05-28T10:11:53.685Z,16.00
2019-05-28T10:14:24.162Z,16.10
2019-05-28T10:16:54.499Z,16.00
2019-05-28T10:19:24.836Z,16.00
2019-05-28T10:21:55.276Z,16.10
2019-05-28T10:24:25.606Z,16.20
2019-05-28T10:26:56.011Z,16.10
2019-05-28T10:29:26.323Z,16.00
2019-05-28T10:31:56.678Z,16.10
2019-05-28T10:34:26.991Z,16.30
2019-05-28T10:36:57.427Z,16.40
2019-05-28T10:39:28.088Z,16.40
2019-05-28T10:41:58.410Z,16.50
2019-05-28T10:44:28.720Z,16.60
2019-05-28T10:46:59.166Z,16.60
2019-05-28T10:49:29.612Z,16.60
2019-05-28T10:51:59.948Z,16.60
2019-05-28T10:54:30.378Z,16.60
2019-05-28T10:57:00.852Z,16.70
2019-05-28T10:59:31.227Z,16.70
2019-05-28T11:02:01.714Z,16.50
2019-05-28T11:04:31.959Z,16.50
2019-05-28T11:07:02.335Z,16.60
2019-05-28T11:09:32.635Z,16.80
2019-05-28T11:12:03.065Z,16.90
2019-05-28T11:14:33.451Z,17.00
2019-05-28T11:17:03.960Z,17.10
2019-05-28T11:19:34.318Z,17.30
2019-05-28T11:22:04.862Z,17.20
2019-05-28T11:24:35.261Z,17.30
2019-05-28T11:27:06.307Z,17.40
2019-05-28T11:29:36.607Z,17.40
2019-05-28T11:32:07.154Z,17.40
2019-05-28T11:34:38.130Z,17.50
2019-05-28T11:37:10.130Z,17.50
2019-05-28T11:39:40.739Z,17.60
2019-05-28T11:42:11.160Z,17.50
2019-05-28T11:44:41.595Z,17.60
2019-05-28T11:47:12.018Z,17.50
2019-05-28T11:49:42.519Z,17.60
2019-05-28T11:52:12.951Z,17.60
2019-05-28T11:54:43.255Z,17.70
2019-05-28T11:57:13.580Z,17.80
2019-05-28T11:59:43.913Z,17.50
2019-05-28T12:02:14.260Z,17.40
2019-05-28T12:04:44.600Z,17.50
2019-05-28T12:07:25.459Z,17.40
2019-05-28T12:09:47.110Z,17.40
2019-05-28T12:12:17.529Z,17.30
2019-05-28T12:14:47.860Z,17.40
2019-05-28T12:17:18.274Z,17.50
2019-05-28T12:19:48.683Z,17.70
2019-05-28T12:22:19.014Z,17.70
2019-05-28T12:24:49.339Z,17.90
2019-05-28T12:27:19.648Z,17.70
2019-05-28T12:29:52.246Z,17.70
2019-05-28T12:32:22.163Z,17.80
2019-05-28T12:34:52.535Z,17.70
2019-05-28T12:37:22.980Z,17.80
2019-05-28T12:39:53.325Z,17.90
2019-05-28T12:42:23.745Z,17.80
2019-05-28T12:45:08.789Z,17.90
2019-05-28T12:47:28.502Z,18.00
2019-05-28T12:50:17.191Z,18.10
2019-05-28T12:52:31.091Z,18.10
2019-05-28T12:55:01.467Z,18.30
2019-05-28T12:57:31.763Z,18.40
2019-05-28T13:00:02.303Z,18.50
2019-05-28T13:02:32.687Z,18.40
2019-05-28T13:05:03.099Z,18.50
2019-05-28T13:07:34.344Z,18.60
2019-05-28T13:10:06.043Z,18.60
2019-05-28T13:12:36.491Z,18.60
2019-05-28T13:15:07.947Z,18.50
2019-05-28T13:17:38.412Z,18.40
2019-05-28T13:20:09.230Z,18.40
2019-05-28T13:22:39.711Z,18.40
2019-05-28T13:25:10.406Z,18.40
2019-05-28T13:27:40.706Z,18.50
2019-05-28T13:30:13.380Z,18.30
2019-05-28T13:32:44.962Z,18.30
2019-05-28T13:35:16.496Z,18.50
2019-05-28T13:37:46.974Z,18.80
2019-05-28T13:40:19.019Z,18.70
2019-05-28T13:42:49.379Z,18.60
2019-05-28T13:45:20.969Z,18.50
2019-05-28T13:47:51.494Z,18.40
2019-05-28T13:50:23.751Z,18.40
2019-05-28T13:52:54.127Z,18.40
2019-05-28T13:55:24.544Z,18.50
2019-05-28T13:57:55.051Z,18.30
2019-05-28T14:00:25.832Z,18.40
2019-05-28T14:02:56.279Z,18.30
2019-05-28T14:05:26.592Z,18.30
2019-05-28T14:07:56.943Z,18.50
2019-05-28T14:10:27.511Z,18.60
2019-05-28T14:12:57.958Z,18.70
2019-05-28T14:15:28.366Z,18.80
2019-05-28T14:17:58.857Z,18.80
2019-05-28T14:20:29.547Z,18.80
2019-05-28T14:22:59.886Z,18.80
2019-05-28T14:25:30.320Z,18.80
2019-05-28T14:28:00.626Z,18.80
2019-05-28T14:30:31.084Z,18.70
2019-05-28T14:33:01.430Z,18.60
2019-05-28T14:35:31.912Z,18.30
2019-05-28T14:38:02.405Z,18.30
2019-05-28T14:40:33.913Z,18.40
2019-05-28T14:43:05.396Z,18.40
2019-05-28T14:45:35.823Z,18.50
2019-05-28T14:48:06.279Z,18.60
2019-05-28T14:50:36.867Z,18.70
2019-05-28T14:53:07.187Z,18.70
2019-05-28T14:55:37.615Z,18.70
2019-05-28T14:58:08.014Z,18.80
2019-05-28T15:00:38.416Z,18.80
2019-05-28T15:03:08.756Z,18.80
2019-05-28T15:05:39.219Z,18.70
2019-05-28T15:08:09.620Z,18.60
2019-05-28T15:10:40.058Z,18.50
2019-05-28T15:13:10.381Z,18.50
2019-05-28T15:15:40.847Z,18.50
2019-05-28T15:18:11.292Z,18.50
2019-05-28T15:20:41.656Z,18.60
2019-05-28T15:23:12.007Z,18.50
2019-05-28T15:25:42.373Z,18.40
2019-05-28T15:28:12.699Z,18.50
2019-05-28T15:30:43.048Z,18.40
2019-05-28T15:33:13.543Z,18.40
2019-05-28T15:35:44.019Z,18.30
2019-05-28T15:38:14.524Z,18.30
2019-05-28T15:40:44.808Z,18.40
2019-05-28T15:43:15.230Z,18.40
2019-05-28T15:45:45.765Z,18.40
2019-05-28T15:48:16.159Z,18.50
2019-05-28T15:50:46.632Z,18.40
2019-05-28T15:53:17.142Z,18.30
2019-05-28T15:55:47.554Z,18.20
2019-05-28T15:58:17.963Z,18.10
2019-05-28T16:00:48.370Z,18.10
2019-05-28T16:03:18.796Z,17.90
2019-05-28T16:05:49.121Z,17.60
2019-05-28T16:08:19.440Z,17.60
2019-05-28T16:10:49.835Z,17.70
2019-05-28T16:13:20.280Z,17.70
2019-05-28T16:15:50.663Z,17.60
2019-05-28T16:18:21.131Z,17.60
2019-05-28T16:20:51.634Z,17.70
2019-05-28T16:23:22.247Z,17.60
2019-05-28T16:25:52.702Z,17.60
2019-05-28T16:28:23.260Z,17.70
2019-05-28T16:31:11.321Z,17.60
2019-05-28T16:33:25.722Z,17.50
2019-05-28T16:35:56.128Z,17.50
2019-05-28T16:38:26.495Z,17.50
2019-05-28T16:40:56.863Z,17.40
2019-05-28T16:43:27.255Z,17.30
2019-05-28T16:45:57.678Z,17.30
2019-05-28T16:48:28.107Z,17.30
2019-05-28T16:50:58.500Z,17.20
2019-05-28T16:53:28.974Z,17.10
2019-05-28T16:55:59.372Z,17.10
2019-05-28T16:58:29.828Z,17.10
2019-05-28T17:01:20.828Z,17.10
2019-05-28T17:03:32.459Z,17.10
2019-05-28T17:06:02.940Z,16.90
2019-05-28T17:08:34.373Z,16.30
2019-05-28T17:11:04.787Z,16.20
2019-05-28T17:13:35.268Z,16.30
2019-05-28T17:16:05.674Z,16.30
2019-05-28T17:18:36.075Z,16.30
2019-05-28T17:21:06.530Z,16.20
2019-05-28T17:23:36.967Z,15.90
2019-05-28T17:26:07.370Z,15.80
2019-05-28T17:28:52.260Z,15.60
2019-05-28T17:31:30.212Z,15.70
2019-05-28T17:34:01.593Z,15.70
2019-05-28T17:36:31.956Z,15.70
2019-05-28T17:39:02.360Z,15.50
2019-05-28T17:41:32.796Z,15.50
2019-05-28T17:44:03.220Z,15.80
2019-05-28T17:46:33.661Z,15.90
2019-05-28T17:49:04.020Z,15.90
2019-05-28T17:51:34.407Z,16.00
2019-05-28T17:54:04.953Z,15.90
2019-05-28T17:56:35.371Z,15.90
2019-05-28T17:59:05.820Z,16.00
2019-05-28T18:01:36.216Z,16.10
2019-05-28T18:04:06.588Z,16.20
2019-05-28T18:06:36.971Z,16.30
2019-05-28T18:09:09.647Z,16.30
2019-05-28T18:11:40.008Z,16.30
2019-05-28T18:14:10.371Z,16.40
2019-05-28T18:16:40.727Z,16.30
2019-05-28T18:19:11.176Z,16.20
2019-05-28T18:21:41.608Z,16.20
2019-05-28T18:24:12.052Z,16.20
2019-05-28T18:26:42.471Z,16.20
2019-05-28T18:29:12.886Z,16.20
2019-05-28T18:31:44.279Z,16.20
2019-05-28T18:34:14.725Z,16.30
2019-05-28T18:36:45.126Z,16.30
2019-05-28T18:39:15.655Z,16.30
2019-05-28T18:41:47.055Z,16.30
2019-05-28T18:44:17.553Z,16.20
2019-05-28T18:46:48.043Z,16.20
2019-05-28T18:49:18.444Z,16.20
2019-05-28T18:51:48.791Z,16.20
2019-05-28T18:54:20.256Z,16.30
2019-05-28T18:56:50.711Z,16.20
2019-05-28T18:59:21.200Z,16.20
2019-05-28T19:01:51.666Z,16.20
2019-05-28T19:04:22.027Z,16.20
2019-05-28T19:06:52.395Z,16.10
2019-05-28T19:09:22.819Z,16.10
2019-05-28T19:11:53.319Z,16.10
2019-05-28T19:14:23.818Z,16.10
2019-05-28T19:16:54.180Z,16.00
2019-05-28T19:19:24.611Z,16.00
2019-05-28T19:21:55.092Z,16.00
2019-05-28T19:24:25.569Z,16.00
2019-05-28T19:26:55.938Z,15.90
2019-05-28T19:29:26.375Z,15.90
2019-05-28T19:31:57.223Z,15.90
2019-05-28T19:34:27.884Z,15.90
2019-05-28T19:36:59.607Z,15.80
2019-05-28T19:39:30.279Z,15.80
2019-05-28T19:42:00.664Z,15.80
2019-05-28T19:44:31.067Z,15.80
2019-05-28T19:47:01.507Z,15.80
2019-05-28T19:49:31.961Z,15.80
2019-05-28T19:52:02.363Z,15.80
2019-05-28T19:54:32.866Z,15.70
2019-05-28T19:57:03.236Z,15.70
2019-05-28T19:59:34.119Z,15.70
2019-05-28T20:02:04.758Z,15.60
2019-05-28T20:04:35.206Z,15.60
2019-05-28T20:07:05.622Z,15.50
2019-05-28T20:09:36.062Z,15.50
2019-05-28T20:12:12.855Z,15.60
2019-05-28T20:14:38.653Z,15.40
2019-05-28T20:17:09.124Z,15.30
2019-05-28T20:19:39.522Z,15.40
2019-05-28T20:22:09.971Z,15.30
2019-05-28T20:24:41.492Z,15.30
2019-05-28T20:27:11.924Z,15.20
2019-05-28T20:29:42.341Z,15.20
2019-05-28T20:32:12.677Z,15.00
2019-05-28T20:34:43.112Z,15.00
2019-05-28T20:37:13.647Z,15.00
2019-05-28T20:39:44.291Z,15.10
2019-05-28T20:42:26.897Z,15.00
2019-05-28T20:44:46.861Z,15.00
2019-05-28T20:47:17.313Z,15.00
2019-05-28T20:49:47.733Z,15.00
2019-05-28T20:52:18.063Z,14.90
2019-05-28T20:54:48.850Z,14.80
2019-05-28T20:57:19.331Z,14.70
2019-05-28T20:59:49.768Z,14.80
2019-05-28T21:02:21.224Z,14.70
2019-05-28T21:04:52.408Z,14.60
2019-05-28T21:07:22.986Z,14.70
2019-05-28T21:09:54.341Z,14.70
2019-05-28T21:12:25.110Z,14.70
2019-05-28T21:14:56.798Z,14.70
2019-05-28T21:17:27.450Z,14.70
2019-05-28T21:19:57.867Z,14.60
2019-05-28T21:22:28.232Z,14.50
2019-05-28T21:24:58.937Z,14.50
2019-05-28T21:27:29.400Z,14.50
2019-05-28T21:30:00.314Z,14.40
2019-05-28T21:32:30.746Z,14.20
2019-05-28T21:35:02.593Z,14.20
2019-05-28T21:37:33.260Z,14.30
2019-05-28T21:40:04.047Z,14.40
2019-05-28T21:42:34.496Z,14.30
2019-05-28T21:45:05.345Z,14.30
2019-05-28T21:47:35.835Z,14.20
2019-05-28T21:50:07.228Z,14.10
2019-05-28T21:52:37.563Z,14.10
2019-05-28T21:55:08.647Z,14.10
2019-05-28T21:57:39.007Z,14.10
2019-05-28T22:00:21.213Z,14.20
2019-05-28T22:02:51.748Z,14.10
2019-05-28T22:05:22.086Z,14.10
2019-05-28T22:07:52.497Z,14.00
2019-05-28T22:10:22.833Z,14.00
2019-05-28T22:12:53.316Z,14.00
2019-05-28T22:15:23.810Z,13.90
2019-05-28T22:17:54.607Z,14.00
2019-05-28T22:20:24.963Z,13.90
2019-05-28T22:22:56.304Z,13.80
2019-05-28T22:25:26.730Z,13.90
2019-05-28T22:27:58.428Z,13.80
2019-05-28T22:30:29.213Z,13.80
2019-05-28T22:33:00.395Z,13.80
2019-05-28T22:35:30.863Z,13.80
2019-05-28T22:38:01.284Z,13.80
2019-05-28T22:40:31.705Z,13.80
2019-05-28T22:43:03.605Z,13.70
2019-05-28T22:45:37.126Z,13.70
2019-05-28T22:48:13.486Z,13.60
2019-05-28T22:50:38.639Z,13.60
2019-05-28T22:53:09.013Z,13.60
2019-05-28T22:55:39.338Z,13.60
2019-05-28T22:58:09.723Z,13.60
2019-05-28T23:00:40.083Z,13.60
2019-05-28T23:03:10.456Z,13.70
2019-05-28T23:05:40.819Z,13.50
2019-05-28T23:08:11.175Z,13.60
2019-05-28T23:10:41.511Z,13.70
2019-05-28T23:13:11.867Z,13.70
2019-05-28T23:15:42.199Z,13.70
2019-05-28T23:18:12.755Z,13.70
2019-05-28T23:20:43.059Z,13.50
2019-05-28T23:23:13.480Z,13.40
2019-05-28T23:25:43.786Z,13.40
2019-05-28T23:28:14.106Z,13.40
2019-05-28T23:30:44.489Z,13.50
2019-05-28T23:33:15.883Z,13.40
2019-05-28T23:35:46.286Z,13.50
2019-05-28T23:38:16.599Z,13.50
2019-05-28T23:40:46.913Z,13.50
2019-05-28T23:43:17.250Z,13.40
2019-05-28T23:45:47.559Z,13.40
2019-05-28T23:48:18.515Z,13.40
2019-05-28T23:50:49.044Z,13.40
2019-05-28T23:53:19.437Z,13.30
2019-05-28T23:55:49.791Z,13.30
2019-05-28T23:58:20.225Z,13.20
